AFR122 SOCA-LFPG
Flight info
| Callsign | AFR122 |
|---|---|
| Flight time | N/A |
| Altitude | 36000 |
| Route | 06N054W DCT 0927N05300W/N0487F370 DCT MUNTR/M083F370 DCT 29N040W/M083F390 36N030W 43N020W DCT PASAS/M083F410 DCT SIVIR DCT RIVAK/N0472F400 DCT KOLEK DCT AKEMO UN471 NTS/N0466F300 UN741 KEPER |
| Aircraft | B772/H-SDE2E3FGHIJ5LORVWXY/LB1D1 |
Departure
| Time | 2026-04-21 18:54 |
|---|---|
| Airport | Cayenne – Félix Eboué Airport (SOCA) |
Arrival
| Time | N/A |
|---|---|
| Airport | Charles de Gaulle International Airport (LFPG) |
| Time | Latitude | Longitude | Altitude | Speed | Heading |
|---|---|---|---|---|---|
| 2026-04-21 18:25 | 4.82091 | -52.36478 | 33 ft | 0 kts | 335° |
| 2026-04-21 18:44 | 4.82074 | -52.36470 | 32 ft | 4 kts | 334° |
| 2026-04-21 18:44 | 4.82052 | -52.36456 | 29 ft | 4 kts | 314° |
| 2026-04-21 18:45 | 4.82038 | -52.36435 | 30 ft | 4 kts | 279° |
| 2026-04-21 18:45 | 4.82039 | -52.36413 | 30 ft | 1 kts | 245° |
| 2026-04-21 18:47 | 4.82037 | -52.36417 | 30 ft | 3 kts | 244° |
| 2026-04-21 18:47 | 4.82025 | -52.36442 | 31 ft | 4 kts | 244° |
| 2026-04-21 18:47 | 4.82009 | -52.36475 | 33 ft | 7 kts | 244° |
| 2026-04-21 18:47 | 4.81982 | -52.36531 | 33 ft | 11 kts | 243° |
| 2026-04-21 18:48 | 4.81942 | -52.36605 | 33 ft | 14 kts | 242° |
| 2026-04-21 18:48 | 4.81895 | -52.36701 | 33 ft | 19 kts | 245° |
| 2026-04-21 18:48 | 4.81831 | -52.36838 | 33 ft | 24 kts | 245° |
| 2026-04-21 18:48 | 4.81781 | -52.36947 | 34 ft | 12 kts | 244° |
| 2026-04-21 18:49 | 4.81745 | -52.37023 | 34 ft | 12 kts | 244° |
| 2026-04-21 18:49 | 4.81709 | -52.37100 | 32 ft | 12 kts | 245° |
| 2026-04-21 18:49 | 4.81685 | -52.37152 | 31 ft | 13 kts | 245° |
| 2026-04-21 18:49 | 4.81636 | -52.37261 | 31 ft | 12 kts | 245° |
| 2026-04-21 18:50 | 4.81635 | -52.37264 | 31 ft | 0 kts | 245° |
| 2026-04-21 18:51 | 4.81627 | -52.37280 | 31 ft | 7 kts | 245° |
| 2026-04-21 18:51 | 4.81591 | -52.37358 | 31 ft | 17 kts | 245° |
| 2026-04-21 18:51 | 4.81522 | -52.37404 | 31 ft | 10 kts | 187° |
| 2026-04-21 18:51 | 4.81484 | -52.37408 | 31 ft | 0 kts | 186° |
| 2026-04-21 18:52 | 4.81480 | -52.37409 | 31 ft | 4 kts | 186° |
| 2026-04-21 18:52 | 4.81420 | -52.37397 | 31 ft | 8 kts | 134° |
| 2026-04-21 18:52 | 4.81443 | -52.37327 | 31 ft | 16 kts | 48° |
| 2026-04-21 18:53 | 4.81505 | -52.37199 | 32 ft | 33 kts | 65° |
| 2026-04-21 18:53 | 4.81656 | -52.36871 | 32 ft | 70 kts | 66° |
| 2026-04-21 18:53 | 4.81954 | -52.36229 | 33 ft | 143 kts | 66° |
| 2026-04-21 18:53 | 4.82480 | -52.35095 | 212 ft | 201 kts | 65° |
| 2026-04-21 18:54 | 4.83020 | -52.33765 | 575 ft | 213 kts | 72° |
| 2026-04-21 18:54 | 4.83390 | -52.32293 | 1157 ft | 222 kts | 80° |
| 2026-04-21 18:54 | 4.83597 | -52.30766 | 2304 ft | 226 kts | 85° |
| 2026-04-21 18:54 | 4.83793 | -52.29207 | 2877 ft | 226 kts | 82° |
| 2026-04-21 18:55 | 4.83973 | -52.28183 | 3307 ft | 222 kts | 79° |
| 2026-04-21 18:55 | 4.85147 | -52.24810 | 4199 ft | 257 kts | 73° |
| 2026-04-21 18:55 | 4.86170 | -52.21327 | 5565 ft | 268 kts | 71° |
| 2026-04-21 18:55 | 4.88942 | -52.18837 | 6846 ft | 283 kts | 13° |
| 2026-04-21 18:56 | 4.92838 | -52.18885 | 8134 ft | 288 kts | 356° |
| 2026-04-21 18:56 | 4.96856 | -52.19199 | 9166 ft | 291 kts | 356° |
| 2026-04-21 18:56 | 5.00651 | -52.19497 | 9780 ft | 295 kts | 356° |
| 2026-04-21 18:56 | 5.02711 | -52.19655 | 9923 ft | 300 kts | 356° |
| 2026-04-21 18:57 | 5.04800 | -52.19813 | 9914 ft | 301 kts | 356° |
| 2026-04-21 18:57 | 5.06886 | -52.19969 | 9911 ft | 299 kts | 356° |
| 2026-04-21 18:57 | 5.08958 | -52.20122 | 9921 ft | 299 kts | 356° |
| 2026-04-21 18:57 | 5.11081 | -52.20278 | 10104 ft | 316 kts | 356° |
| 2026-04-21 18:58 | 5.13352 | -52.20443 | 10264 ft | 338 kts | 356° |
| 2026-04-21 18:58 | 5.15789 | -52.20621 | 10426 ft | 361 kts | 356° |
| 2026-04-21 18:58 | 5.18350 | -52.20807 | 10753 ft | 378 kts | 356° |
| 2026-04-21 18:58 | 5.21003 | -52.21001 | 11365 ft | 386 kts | 356° |
| 2026-04-21 18:59 | 5.23696 | -52.21198 | 12074 ft | 390 kts | 356° |
| 2026-04-21 18:59 | 5.26417 | -52.21396 | 12799 ft | 394 kts | 356° |
| 2026-04-21 18:59 | 5.29156 | -52.21596 | 13543 ft | 396 kts | 357° |
| 2026-04-21 18:59 | 5.31924 | -52.21798 | 14152 ft | 400 kts | 356° |
| 2026-04-21 19:00 | 5.34684 | -52.21999 | 14695 ft | 405 kts | 356° |
| 2026-04-21 19:00 | 5.37509 | -52.22205 | 15235 ft | 409 kts | 356° |
| 2026-04-21 19:00 | 5.40364 | -52.22413 | 15759 ft | 414 kts | 356° |
| 2026-04-21 19:00 | 5.43253 | -52.22623 | 16308 ft | 417 kts | 356° |
| 2026-04-21 19:01 | 5.46153 | -52.22835 | 16868 ft | 419 kts | 355° |
| 2026-04-21 19:01 | 5.49074 | -52.23139 | 17371 ft | 423 kts | 351° |
| 2026-04-21 19:01 | 5.51986 | -52.23645 | 17858 ft | 427 kts | 348° |
| 2026-04-21 19:01 | 5.54916 | -52.24244 | 18321 ft | 430 kts | 347° |
| 2026-04-21 19:02 | 5.57859 | -52.24869 | 18728 ft | 434 kts | 348° |
| 2026-04-21 19:02 | 5.60822 | -52.25491 | 19150 ft | 436 kts | 347° |
| 2026-04-21 19:02 | 5.63770 | -52.26095 | 19524 ft | 440 kts | 348° |
| 2026-04-21 19:02 | 5.66779 | -52.26697 | 19905 ft | 443 kts | 348° |
| 2026-04-21 19:03 | 5.69814 | -52.27293 | 20318 ft | 445 kts | 348° |
| 2026-04-21 19:03 | 5.72870 | -52.27885 | 20674 ft | 449 kts | 348° |
| 2026-04-21 19:03 | 5.75952 | -52.28478 | 21040 ft | 452 kts | 348° |
| 2026-04-21 19:03 | 5.79058 | -52.29074 | 21397 ft | 455 kts | 348° |
| 2026-04-21 19:04 | 5.82174 | -52.29672 | 21765 ft | 457 kts | 348° |
| 2026-04-21 19:04 | 5.85312 | -52.30275 | 22146 ft | 459 kts | 348° |
| 2026-04-21 19:04 | 5.88464 | -52.30880 | 22511 ft | 462 kts | 348° |
| 2026-04-21 19:04 | 5.91629 | -52.31489 | 22864 ft | 464 kts | 348° |
| 2026-04-21 19:05 | 5.94774 | -52.32093 | 23202 ft | 467 kts | 348° |
| 2026-04-21 19:05 | 5.97977 | -52.32710 | 23532 ft | 469 kts | 348° |
| 2026-04-21 19:05 | 6.01188 | -52.33327 | 23817 ft | 472 kts | 348° |
| 2026-04-21 19:05 | 6.04417 | -52.33948 | 24136 ft | 473 kts | 348° |
| 2026-04-21 19:06 | 6.07658 | -52.34572 | 24474 ft | 474 kts | 348° |
| 2026-04-21 19:06 | 6.10904 | -52.35197 | 24753 ft | 476 kts | 348° |
| 2026-04-21 19:06 | 6.14164 | -52.35825 | 25022 ft | 478 kts | 348° |
| 2026-04-21 19:06 | 6.17440 | -52.36455 | 25281 ft | 481 kts | 348° |
| 2026-04-21 19:07 | 6.20742 | -52.37091 | 25548 ft | 483 kts | 348° |
| 2026-04-21 19:07 | 6.24010 | -52.37721 | 25812 ft | 485 kts | 348° |
| 2026-04-21 19:07 | 6.27329 | -52.38360 | 26075 ft | 487 kts | 348° |
| 2026-04-21 19:07 | 6.30663 | -52.39002 | 26332 ft | 489 kts | 348° |
| 2026-04-21 19:08 | 6.34023 | -52.39649 | 26606 ft | 490 kts | 347° |
| 2026-04-21 19:08 | 6.37362 | -52.40292 | 27011 ft | 488 kts | 348° |
| 2026-04-21 19:08 | 6.40709 | -52.40937 | 27237 ft | 491 kts | 348° |
| 2026-04-21 19:08 | 6.44077 | -52.41587 | 27412 ft | 495 kts | 348° |
| 2026-04-21 19:09 | 6.47481 | -52.42243 | 27641 ft | 498 kts | 348° |
| 2026-04-21 19:09 | 6.50898 | -52.42902 | 27866 ft | 500 kts | 348° |
| 2026-04-21 19:09 | 6.54316 | -52.43561 | 28120 ft | 501 kts | 348° |
| 2026-04-21 19:09 | 6.57701 | -52.44214 | 28315 ft | 503 kts | 348° |
| 2026-04-21 19:10 | 6.60031 | -52.44663 | 28451 ft | 505 kts | 348° |
| 2026-04-21 19:10 | 6.64612 | -52.45547 | 28738 ft | 507 kts | 348° |
| 2026-04-21 19:10 | 6.68091 | -52.46218 | 28887 ft | 510 kts | 348° |
| 2026-04-21 19:10 | 6.71591 | -52.46893 | 29144 ft | 510 kts | 348° |
| 2026-04-21 19:11 | 6.75090 | -52.47568 | 29263 ft | 513 kts | 348° |
| 2026-04-21 19:11 | 6.78604 | -52.48247 | 29471 ft | 514 kts | 348° |
| 2026-04-21 19:11 | 6.82127 | -52.48927 | 29679 ft | 515 kts | 348° |
| 2026-04-21 19:11 | 6.85614 | -52.49600 | 29847 ft | 516 kts | 349° |
| 2026-04-21 19:12 | 6.87992 | -52.50059 | 30085 ft | 514 kts | 349° |
| 2026-04-21 19:12 | 6.92694 | -52.50967 | 30310 ft | 516 kts | 349° |
| 2026-04-21 19:12 | 6.96180 | -52.51640 | 30549 ft | 515 kts | 348° |
| 2026-04-21 19:12 | 6.99699 | -52.52320 | 30794 ft | 515 kts | 348° |
| 2026-04-21 19:13 | 7.03220 | -52.53000 | 30942 ft | 516 kts | 348° |
| 2026-04-21 19:13 | 7.06752 | -52.53683 | 31173 ft | 516 kts | 348° |
| 2026-04-21 19:13 | 7.10279 | -52.54365 | 31421 ft | 515 kts | 349° |
| 2026-04-21 19:13 | 7.13793 | -52.55044 | 31700 ft | 514 kts | 348° |
| 2026-04-21 19:14 | 7.17311 | -52.55724 | 31920 ft | 515 kts | 348° |
| 2026-04-21 19:14 | 7.20830 | -52.56405 | 32162 ft | 514 kts | 349° |
| 2026-04-21 19:14 | 7.24341 | -52.57084 | 32510 ft | 512 kts | 348° |
| 2026-04-21 19:14 | 7.27842 | -52.57761 | 32780 ft | 512 kts | 348° |
| 2026-04-21 19:15 | 7.31343 | -52.58438 | 33024 ft | 512 kts | 348° |
| 2026-04-21 19:15 | 7.34849 | -52.59117 | 33238 ft | 513 kts | 348° |
| 2026-04-21 19:15 | 7.38353 | -52.59795 | 33479 ft | 513 kts | 349° |
| 2026-04-21 19:15 | 7.41858 | -52.60474 | 33755 ft | 513 kts | 349° |
| 2026-04-21 19:16 | 7.45318 | -52.61143 | 34005 ft | 512 kts | 349° |
| 2026-04-21 19:16 | 7.48826 | -52.61823 | 34243 ft | 512 kts | 349° |
| 2026-04-21 19:16 | 7.52321 | -52.62500 | 34495 ft | 511 kts | 348° |
| 2026-04-21 19:16 | 7.55812 | -52.63176 | 34736 ft | 511 kts | 348° |
| 2026-04-21 19:17 | 7.62833 | -52.64536 | 35046 ft | 514 kts | 348° |
| 2026-04-21 19:17 | 7.66348 | -52.65217 | 35321 ft | 513 kts | 348° |
| 2026-04-21 19:17 | 7.69845 | -52.65895 | 35602 ft | 511 kts | 348° |
| 2026-04-21 19:18 | 7.73333 | -52.66571 | 35861 ft | 510 kts | 348° |
| 2026-04-21 19:18 | 7.76818 | -52.67246 | 36094 ft | 510 kts | 348° |
| 2026-04-21 19:18 | 7.80299 | -52.67921 | 36317 ft | 509 kts | 348° |
| 2026-04-21 19:18 | 7.83780 | -52.68596 | 36542 ft | 509 kts | 348° |
| 2026-04-21 19:19 | 7.87261 | -52.69272 | 36718 ft | 509 kts | 348° |
| 2026-04-21 19:19 | 7.90748 | -52.69949 | 36874 ft | 511 kts | 348° |
| 2026-04-21 19:19 | 7.94236 | -52.70625 | 37072 ft | 510 kts | 348° |
| 2026-04-21 19:19 | 7.97671 | -52.71292 | 37315 ft | 509 kts | 348° |
| 2026-04-21 19:20 | 8.01152 | -52.71968 | 37549 ft | 508 kts | 348° |
| 2026-04-21 19:20 | 8.04627 | -52.72642 | 37754 ft | 508 kts | 348° |
| 2026-04-21 19:20 | 8.08097 | -52.73316 | 37943 ft | 507 kts | 348° |
| 2026-04-21 19:20 | 8.11565 | -52.73990 | 38121 ft | 507 kts | 348° |
| 2026-04-21 19:21 | 8.15023 | -52.74661 | 38315 ft | 507 kts | 347° |
| 2026-04-21 19:21 | 8.18493 | -52.75335 | 38395 ft | 509 kts | 347° |
| 2026-04-21 19:21 | 8.25473 | -52.76692 | 38627 ft | 510 kts | 347° |
| 2026-04-21 19:22 | 8.28949 | -52.77368 | 38891 ft | 506 kts | 347° |
| 2026-04-21 19:22 | 8.31229 | -52.77810 | 39136 ft | 502 kts | 347° |
| 2026-04-21 19:22 | 8.34640 | -52.78473 | 39504 ft | 496 kts | 347° |
| 2026-04-21 19:22 | 8.38019 | -52.79129 | 39788 ft | 492 kts | 347° |
| 2026-04-21 19:23 | 8.42469 | -52.79995 | 39919 ft | 493 kts | 347° |
| 2026-04-21 19:23 | 8.44756 | -52.80441 | 39927 ft | 495 kts | 347° |
| 2026-04-21 19:23 | 8.51500 | -52.81755 | 40019 ft | 498 kts | 347° |
| 2026-04-21 19:24 | 8.58304 | -52.83079 | 40221 ft | 498 kts | 347° |
| 2026-04-21 19:24 | 8.65105 | -52.84403 | 40380 ft | 498 kts | 347° |
| 2026-04-21 19:25 | 8.71935 | -52.85734 | 40517 ft | 499 kts | 347° |
| 2026-04-21 19:25 | 8.78721 | -52.87056 | 40641 ft | 500 kts | 347° |
| 2026-04-21 19:26 | 8.85553 | -52.88388 | 40757 ft | 500 kts | 347° |
| 2026-04-21 19:26 | 8.92388 | -52.89721 | 40884 ft | 499 kts | 347° |
| 2026-04-21 19:27 | 8.99225 | -52.91055 | 40918 ft | 500 kts | 347° |
| 2026-04-21 19:27 | 9.06072 | -52.92392 | 40927 ft | 501 kts | 347° |
| 2026-04-21 19:28 | 9.12922 | -52.93729 | 40926 ft | 502 kts | 346° |
| 2026-04-21 19:28 | 9.19740 | -52.95061 | 40923 ft | 502 kts | 346° |
| 2026-04-21 19:29 | 9.26606 | -52.96403 | 40923 ft | 502 kts | 346° |
| 2026-04-21 19:29 | 9.33478 | -52.97746 | 40923 ft | 503 kts | 346° |
| 2026-04-21 19:30 | 9.40363 | -52.99062 | 40923 ft | 503 kts | 350° |
| 2026-04-21 19:30 | 9.47381 | -52.98974 | 40927 ft | 508 kts | 7° |
| 2026-04-21 19:31 | 9.54150 | -52.97082 | 40934 ft | 509 kts | 17° |
| 2026-04-21 19:31 | 9.60852 | -52.94715 | 40925 ft | 509 kts | 18° |
| 2026-04-21 19:32 | 9.67548 | -52.92370 | 40931 ft | 509 kts | 17° |
| 2026-04-21 19:32 | 9.74265 | -52.90069 | 40926 ft | 509 kts | 17° |
| 2026-04-21 19:33 | 9.80982 | -52.87791 | 40926 ft | 508 kts | 17° |
| 2026-04-21 19:33 | 9.87686 | -52.85518 | 40926 ft | 508 kts | 17° |
| 2026-04-21 19:34 | 9.94339 | -52.83259 | 40925 ft | 507 kts | 17° |
| 2026-04-21 19:34 | 10.01033 | -52.80983 | 40930 ft | 507 kts | 17° |
| 2026-04-21 19:35 | 10.11059 | -52.77571 | 40929 ft | 506 kts | 17° |
| 2026-04-21 19:36 | 10.17745 | -52.75295 | 40926 ft | 506 kts | 16° |
| 2026-04-21 19:36 | 10.24424 | -52.73021 | 40938 ft | 506 kts | 16° |
| 2026-04-21 19:37 | 10.31055 | -52.70762 | 40934 ft | 505 kts | 16° |
| 2026-04-21 19:37 | 10.37731 | -52.68485 | 40936 ft | 505 kts | 16° |
| 2026-04-21 19:38 | 10.44404 | -52.66210 | 40935 ft | 505 kts | 16° |
| 2026-04-21 19:38 | 10.51062 | -52.63937 | 40941 ft | 505 kts | 16° |
| 2026-04-21 19:39 | 10.57723 | -52.61663 | 40944 ft | 504 kts | 16° |
| 2026-04-21 19:39 | 10.64334 | -52.59405 | 40938 ft | 504 kts | 16° |
| 2026-04-21 19:40 | 10.70992 | -52.57131 | 40937 ft | 503 kts | 16° |
| 2026-04-21 19:40 | 10.77631 | -52.54862 | 40936 ft | 503 kts | 16° |
| 2026-04-21 19:41 | 10.84275 | -52.52590 | 40941 ft | 502 kts | 15° |
| 2026-04-21 19:41 | 10.90897 | -52.50324 | 40936 ft | 502 kts | 15° |
| 2026-04-21 19:42 | 10.97521 | -52.48057 | 40942 ft | 502 kts | 15° |
| 2026-04-21 19:42 | 11.04090 | -52.45807 | 40939 ft | 502 kts | 15° |
| 2026-04-21 19:43 | 11.10715 | -52.43538 | 40943 ft | 501 kts | 15° |
| 2026-04-21 19:43 | 11.17330 | -52.41271 | 40938 ft | 501 kts | 15° |
| 2026-04-21 19:44 | 11.23942 | -52.39003 | 40938 ft | 501 kts | 15° |
| 2026-04-21 19:44 | 11.30513 | -52.36748 | 40940 ft | 501 kts | 15° |
| 2026-04-21 19:45 | 11.37124 | -52.34479 | 40946 ft | 501 kts | 15° |
| 2026-04-21 19:45 | 11.43731 | -52.32210 | 40941 ft | 500 kts | 15° |
| 2026-04-21 19:46 | 11.50327 | -52.29944 | 40949 ft | 500 kts | 15° |
| 2026-04-21 19:46 | 11.56933 | -52.27673 | 40940 ft | 500 kts | 15° |
| 2026-04-21 19:47 | 11.63532 | -52.25403 | 40942 ft | 500 kts | 15° |
| 2026-04-21 19:47 | 11.70093 | -52.23145 | 40943 ft | 501 kts | 15° |
| 2026-04-21 19:48 | 11.76702 | -52.20870 | 40945 ft | 501 kts | 15° |
| 2026-04-21 19:48 | 11.83316 | -52.18592 | 40948 ft | 501 kts | 15° |
| 2026-04-21 19:49 | 11.89934 | -52.16311 | 40952 ft | 501 kts | 15° |
| 2026-04-21 19:49 | 11.96515 | -52.14041 | 40947 ft | 501 kts | 15° |
| 2026-04-21 19:50 | 12.02010 | -52.12146 | 40946 ft | 501 kts | 15° |
| 2026-04-21 19:50 | 12.09726 | -52.09482 | 40948 ft | 500 kts | 15° |
| 2026-04-21 19:51 | 12.16332 | -52.07201 | 40946 ft | 500 kts | 15° |
| 2026-04-21 19:51 | 12.22917 | -52.04925 | 40948 ft | 500 kts | 15° |
| 2026-04-21 19:52 | 12.29467 | -52.02661 | 40951 ft | 499 kts | 15° |
| 2026-04-21 19:52 | 12.36047 | -52.00385 | 40946 ft | 499 kts | 15° |
| 2026-04-21 19:53 | 12.42630 | -51.98107 | 40950 ft | 500 kts | 15° |
| 2026-04-21 19:53 | 12.49226 | -51.95823 | 40951 ft | 499 kts | 15° |
| 2026-04-21 19:54 | 12.55815 | -51.93540 | 40951 ft | 499 kts | 15° |
| 2026-04-21 19:54 | 12.62403 | -51.91256 | 40953 ft | 499 kts | 15° |
| 2026-04-21 19:55 | 12.68942 | -51.88988 | 40954 ft | 499 kts | 15° |
| 2026-04-21 19:55 | 12.75534 | -51.86700 | 40957 ft | 499 kts | 15° |
| 2026-04-21 19:56 | 12.82109 | -51.84417 | 40952 ft | 499 kts | 15° |
| 2026-04-21 19:56 | 12.88684 | -51.82133 | 40953 ft | 499 kts | 15° |
| 2026-04-21 19:57 | 12.95257 | -51.79849 | 40947 ft | 499 kts | 15° |
| 2026-04-21 19:57 | 13.01840 | -51.77559 | 40962 ft | 499 kts | 14° |
| 2026-04-21 19:58 | 13.08415 | -51.75271 | 40957 ft | 499 kts | 14° |
| 2026-04-21 19:58 | 13.14958 | -51.72993 | 40958 ft | 499 kts | 14° |
| 2026-04-21 19:59 | 13.21537 | -51.70701 | 40956 ft | 499 kts | 14° |
| 2026-04-21 19:59 | 13.28113 | -51.68409 | 40967 ft | 499 kts | 14° |
| 2026-04-21 20:00 | 13.34706 | -51.66109 | 40963 ft | 499 kts | 14° |
| 2026-04-21 20:00 | 13.41252 | -51.63825 | 40968 ft | 499 kts | 14° |
| 2026-04-21 20:01 | 13.47843 | -51.61524 | 40967 ft | 499 kts | 14° |
| 2026-04-21 20:01 | 13.54432 | -51.59221 | 40971 ft | 500 kts | 14° |
| 2026-04-21 20:02 | 13.59919 | -51.57303 | 40960 ft | 500 kts | 14° |
| 2026-04-21 20:02 | 13.67588 | -51.54621 | 40969 ft | 500 kts | 14° |
| 2026-04-21 20:03 | 13.74181 | -51.52313 | 40965 ft | 500 kts | 14° |
| 2026-04-21 20:03 | 13.80781 | -51.50002 | 40974 ft | 501 kts | 14° |
| 2026-04-21 20:04 | 13.87382 | -51.47689 | 40976 ft | 501 kts | 14° |
| 2026-04-21 20:04 | 13.93947 | -51.45387 | 40961 ft | 502 kts | 14° |
| 2026-04-21 20:05 | 14.00568 | -51.43064 | 40960 ft | 502 kts | 14° |
| 2026-04-21 20:05 | 14.07182 | -51.40742 | 40973 ft | 502 kts | 14° |
| 2026-04-21 20:06 | 14.13802 | -51.38417 | 40974 ft | 503 kts | 14° |
| 2026-04-21 20:06 | 14.20429 | -51.36087 | 40973 ft | 503 kts | 14° |
| 2026-04-21 20:07 | 14.27059 | -51.33755 | 40977 ft | 503 kts | 14° |
| 2026-04-21 20:07 | 14.32563 | -51.31818 | 40967 ft | 503 kts | 14° |
| 2026-04-21 20:08 | 14.40270 | -51.29104 | 40979 ft | 503 kts | 14° |
| 2026-04-21 20:08 | 14.46899 | -51.26768 | 40990 ft | 503 kts | 14° |
| 2026-04-21 20:09 | 14.52411 | -51.24825 | 40977 ft | 503 kts | 14° |
| 2026-04-21 20:09 | 14.59042 | -51.22486 | 40981 ft | 503 kts | 14° |
| 2026-04-21 20:10 | 14.65680 | -51.20142 | 40977 ft | 503 kts | 14° |
| 2026-04-21 20:10 | 14.72307 | -51.17802 | 40980 ft | 503 kts | 14° |
| 2026-04-21 20:11 | 14.78931 | -51.15460 | 40981 ft | 503 kts | 14° |
| 2026-04-21 20:11 | 14.85551 | -51.13119 | 40991 ft | 503 kts | 14° |
| 2026-04-21 20:12 | 14.92133 | -51.10790 | 40986 ft | 503 kts | 14° |
| 2026-04-21 20:12 | 14.98750 | -51.08446 | 40982 ft | 502 kts | 14° |
| 2026-04-21 20:13 | 15.05367 | -51.06101 | 40987 ft | 502 kts | 14° |
| 2026-04-21 20:13 | 15.11986 | -51.03754 | 40993 ft | 502 kts | 13° |
| 2026-04-21 20:14 | 15.18595 | -51.01409 | 40985 ft | 502 kts | 13° |
| 2026-04-21 20:14 | 15.25166 | -50.99076 | 40986 ft | 501 kts | 13° |
| 2026-04-21 20:15 | 15.31771 | -50.96729 | 40988 ft | 501 kts | 13° |
| 2026-04-21 20:15 | 15.38374 | -50.94381 | 40999 ft | 501 kts | 13° |
| 2026-04-21 20:16 | 15.44976 | -50.92034 | 40992 ft | 502 kts | 13° |
| 2026-04-21 20:16 | 15.51586 | -50.89681 | 40991 ft | 502 kts | 13° |
| 2026-04-21 20:17 | 15.58154 | -50.87340 | 40985 ft | 502 kts | 13° |
| 2026-04-21 20:17 | 15.64772 | -50.84981 | 41000 ft | 502 kts | 13° |
| 2026-04-21 20:18 | 15.71388 | -50.82621 | 40990 ft | 503 kts | 13° |
| 2026-04-21 20:18 | 15.78011 | -50.80256 | 40991 ft | 503 kts | 13° |
| 2026-04-21 20:19 | 15.84599 | -50.77903 | 40996 ft | 503 kts | 13° |
| 2026-04-21 20:19 | 15.91225 | -50.75534 | 41002 ft | 504 kts | 13° |
| 2026-04-21 20:20 | 15.97862 | -50.73159 | 40994 ft | 504 kts | 13° |
| 2026-04-21 20:20 | 16.04502 | -50.70783 | 40998 ft | 504 kts | 13° |
| 2026-04-21 20:21 | 16.11097 | -50.68420 | 41018 ft | 504 kts | 13° |
| 2026-04-21 20:21 | 16.17734 | -50.66040 | 41006 ft | 504 kts | 13° |
| 2026-04-21 20:22 | 16.24371 | -50.63659 | 41001 ft | 504 kts | 13° |
| 2026-04-21 20:22 | 16.34289 | -50.60098 | 40999 ft | 504 kts | 13° |
| 2026-04-21 20:23 | 16.40912 | -50.57717 | 40999 ft | 504 kts | 13° |
| 2026-04-21 20:23 | 16.47547 | -50.55331 | 41001 ft | 503 kts | 13° |
| 2026-04-21 20:24 | 16.54167 | -50.52948 | 41006 ft | 503 kts | 13° |
| 2026-04-21 20:24 | 16.60781 | -50.50566 | 41005 ft | 503 kts | 13° |
| 2026-04-21 20:25 | 16.67400 | -50.48179 | 41011 ft | 502 kts | 12° |
| 2026-04-21 20:25 | 16.73969 | -50.45810 | 41008 ft | 502 kts | 12° |
| 2026-04-21 20:26 | 16.80563 | -50.43430 | 41010 ft | 501 kts | 12° |
| 2026-04-21 20:26 | 16.87148 | -50.41051 | 41003 ft | 500 kts | 12° |
| 2026-04-21 20:27 | 16.93723 | -50.38674 | 41012 ft | 500 kts | 12° |
| 2026-04-21 20:27 | 17.00294 | -50.36297 | 41011 ft | 500 kts | 12° |
| 2026-04-21 20:28 | 17.06840 | -50.33928 | 41012 ft | 500 kts | 13° |
| 2026-04-21 20:28 | 17.13426 | -50.31541 | 41027 ft | 501 kts | 12° |
| 2026-04-21 20:29 | 17.20016 | -50.29152 | 41017 ft | 501 kts | 12° |
| 2026-04-21 20:29 | 17.26617 | -50.26757 | 41012 ft | 501 kts | 12° |
| 2026-04-21 20:30 | 17.33213 | -50.24362 | 41011 ft | 501 kts | 12° |
| 2026-04-21 20:30 | 17.39763 | -50.21981 | 41025 ft | 501 kts | 12° |
| 2026-04-21 20:31 | 17.46350 | -50.19585 | 41012 ft | 501 kts | 12° |
| 2026-04-21 20:31 | 17.52933 | -50.17188 | 41018 ft | 500 kts | 12° |
| 2026-04-21 20:32 | 17.59530 | -50.14785 | 41014 ft | 500 kts | 12° |
| 2026-04-21 20:32 | 17.66075 | -50.12400 | 41019 ft | 501 kts | 12° |
| 2026-04-21 20:33 | 17.72660 | -50.09997 | 41019 ft | 500 kts | 12° |
| 2026-04-21 20:33 | 17.79234 | -50.07596 | 41019 ft | 500 kts | 12° |
| 2026-04-21 20:34 | 17.85815 | -50.05191 | 41041 ft | 500 kts | 12° |
| 2026-04-21 20:34 | 17.92394 | -50.02785 | 41027 ft | 501 kts | 12° |
| 2026-04-21 20:35 | 17.98864 | -50.00093 | 41014 ft | 508 kts | 21° |
| 2026-04-21 20:35 | 18.04920 | -49.96138 | 41017 ft | 518 kts | 32° |
| 2026-04-21 20:36 | 18.10569 | -49.91471 | 40758 ft | 515 kts | 33° |
| 2026-04-21 20:36 | 18.13380 | -49.89114 | 40331 ft | 518 kts | 33° |
| 2026-04-21 20:36 | 18.16207 | -49.86752 | 39921 ft | 519 kts | 32° |
| 2026-04-21 20:37 | 18.21281 | -49.82543 | 39150 ft | 523 kts | 32° |
| 2026-04-21 20:37 | 18.27100 | -49.77762 | 37628 ft | 537 kts | 32° |
| 2026-04-21 20:37 | 18.30814 | -49.74709 | 37173 ft | 537 kts | 32° |
| 2026-04-21 20:37 | 18.33769 | -49.72278 | 37015 ft | 540 kts | 32° |
| 2026-04-21 20:38 | 18.39627 | -49.67449 | 37023 ft | 537 kts | 32° |
| 2026-04-21 20:38 | 18.45512 | -49.62594 | 36943 ft | 534 kts | 32° |
| 2026-04-21 20:39 | 18.51350 | -49.57771 | 37025 ft | 532 kts | 32° |
| 2026-04-21 20:39 | 18.54259 | -49.55368 | 37128 ft | 531 kts | 32° |
| 2026-04-21 20:39 | 18.57178 | -49.52959 | 37050 ft | 534 kts | 32° |
| 2026-04-21 20:40 | 18.63012 | -49.48141 | 37035 ft | 538 kts | 32° |